createdAt,value
2017-07-31T00:00:40.068Z,985.12
2017-07-31T00:01:37.380Z,985.12
2017-07-31T00:02:34.636Z,985.14
2017-07-31T00:03:31.934Z,985.18
2017-07-31T00:04:29.258Z,985.11
2017-07-31T00:05:26.642Z,985.16
2017-07-31T00:06:23.914Z,985.17
2017-07-31T00:07:21.555Z,985.13
2017-07-31T00:08:18.839Z,985.15
2017-07-31T00:09:16.201Z,985.13
2017-07-31T00:10:13.605Z,985.20
2017-07-31T00:11:10.890Z,985.10
2017-07-31T00:12:08.159Z,985.06
2017-07-31T00:13:05.425Z,985.13
2017-07-31T00:14:02.688Z,985.11
2017-07-31T00:14:59.987Z,985.08
2017-07-31T00:15:57.234Z,985.10
2017-07-31T00:16:54.526Z,985.10
2017-07-31T00:17:51.880Z,985.09
2017-07-31T00:18:49.177Z,985.14
2017-07-31T00:19:46.490Z,985.15
2017-07-31T00:20:43.821Z,985.04
2017-07-31T00:21:41.133Z,985.05
2017-07-31T00:22:38.506Z,985.10
2017-07-31T00:23:35.902Z,985.10
2017-07-31T00:24:33.264Z,985.04
2017-07-31T00:25:30.574Z,985.09
2017-07-31T00:26:27.984Z,985.05
2017-07-31T00:27:25.264Z,985.08
2017-07-31T00:28:22.710Z,985.13
2017-07-31T00:29:20.113Z,985.11
2017-07-31T00:30:17.477Z,985.10
2017-07-31T00:31:14.801Z,985.05
2017-07-31T00:32:12.163Z,985.08
2017-07-31T00:33:09.544Z,985.02
2017-07-31T00:34:07.070Z,985.02
2017-07-31T00:35:04.360Z,985.03
2017-07-31T00:36:01.829Z,984.99
2017-07-31T00:36:59.214Z,984.99
2017-07-31T00:37:56.502Z,985.09
2017-07-31T00:38:53.802Z,985.01
2017-07-31T00:39:51.113Z,985.05
2017-07-31T00:40:48.440Z,984.99
2017-07-31T00:41:45.765Z,985.03
2017-07-31T00:42:43.099Z,985.01
2017-07-31T00:43:40.519Z,985.01
2017-07-31T00:44:37.804Z,985.05
2017-07-31T00:45:35.107Z,985.06
2017-07-31T00:46:32.368Z,985.07
2017-07-31T00:47:29.712Z,985.05
2017-07-31T00:48:27.053Z,985.14
2017-07-31T00:49:24.406Z,985.06
2017-07-31T00:50:21.721Z,985.12
2017-07-31T00:51:19.108Z,985.16
2017-07-31T00:52:16.385Z,985.15
2017-07-31T00:53:13.749Z,985.19
2017-07-31T00:54:11.004Z,985.19
2017-07-31T00:55:08.288Z,985.15
2017-07-31T00:56:05.580Z,985.30
2017-07-31T00:57:02.949Z,985.23
2017-07-31T00:58:00.226Z,985.27
2017-07-31T00:58:57.502Z,985.32
2017-07-31T00:59:54.821Z,985.31
2017-07-31T01:00:52.164Z,985.12
2017-07-31T01:01:49.470Z,985.20
2017-07-31T01:02:46.817Z,985.17
2017-07-31T01:03:44.102Z,985.12
2017-07-31T01:04:41.399Z,985.17
2017-07-31T01:05:38.708Z,985.16
2017-07-31T01:06:36.014Z,985.19
2017-07-31T01:07:33.278Z,985.26
2017-07-31T01:08:30.661Z,985.33
2017-07-31T01:09:27.918Z,985.29
2017-07-31T01:10:25.292Z,985.31
2017-07-31T01:11:22.579Z,985.24
2017-07-31T01:12:20.005Z,985.18
2017-07-31T01:13:17.266Z,985.19
2017-07-31T01:14:14.640Z,985.22
2017-07-31T01:15:11.927Z,985.19
2017-07-31T01:16:09.228Z,985.19
2017-07-31T01:17:06.540Z,985.27
2017-07-31T01:18:03.836Z,985.39
2017-07-31T01:19:01.132Z,985.29
2017-07-31T01:19:58.412Z,985.31
2017-07-31T01:20:55.693Z,985.26
2017-07-31T01:21:53.228Z,985.31
2017-07-31T01:22:50.504Z,985.31
2017-07-31T01:23:47.882Z,985.24
2017-07-31T01:24:45.640Z,985.29
2017-07-31T01:25:43.005Z,985.31
2017-07-31T01:26:40.296Z,985.43
2017-07-31T01:27:37.679Z,985.41
2017-07-31T01:28:35.002Z,985.46
2017-07-31T01:29:32.324Z,985.52
2017-07-31T01:30:29.618Z,985.51
2017-07-31T01:31:27.045Z,985.55
2017-07-31T01:32:24.326Z,985.48
2017-07-31T01:33:21.716Z,985.47
2017-07-31T01:34:19.076Z,985.49
2017-07-31T01:35:16.401Z,985.44
2017-07-31T01:36:13.705Z,985.50
2017-07-31T01:37:11.058Z,985.61
2017-07-31T01:38:08.309Z,985.63
2017-07-31T01:39:05.600Z,985.60
2017-07-31T01:40:02.880Z,985.67
2017-07-31T01:41:00.174Z,985.61
2017-07-31T01:41:57.453Z,985.60
2017-07-31T01:42:54.804Z,985.58
2017-07-31T01:43:52.064Z,985.61
2017-07-31T01:44:49.376Z,985.52
2017-07-31T01:45:46.641Z,985.55
2017-07-31T01:46:43.944Z,985.56
2017-07-31T01:47:41.269Z,985.52
2017-07-31T01:48:38.656Z,985.52
2017-07-31T01:49:35.943Z,985.42
2017-07-31T01:50:33.246Z,985.42
2017-07-31T01:51:30.597Z,985.40
2017-07-31T01:52:27.950Z,985.41
2017-07-31T01:53:25.238Z,985.45
2017-07-31T01:54:22.517Z,985.35
2017-07-31T01:55:19.811Z,985.28
2017-07-31T01:56:17.124Z,985.29
2017-07-31T01:57:14.412Z,985.28
2017-07-31T01:58:11.749Z,985.30
2017-07-31T01:59:09.043Z,985.24
2017-07-31T02:00:06.337Z,985.29
2017-07-31T02:01:03.581Z,985.28
2017-07-31T02:02:00.854Z,985.19
2017-07-31T02:02:58.202Z,985.26
2017-07-31T02:03:55.520Z,985.29
2017-07-31T02:04:52.801Z,985.29
2017-07-31T02:05:50.079Z,985.37
2017-07-31T02:06:47.347Z,985.41
2017-07-31T02:07:44.643Z,985.32
2017-07-31T02:08:41.913Z,985.25
2017-07-31T02:09:39.241Z,985.26
2017-07-31T02:10:36.508Z,985.29
2017-07-31T02:11:33.877Z,985.25
2017-07-31T02:12:31.165Z,985.32
2017-07-31T02:13:28.552Z,985.30
2017-07-31T02:14:25.824Z,985.21
2017-07-31T02:15:23.141Z,985.26
2017-07-31T02:16:20.477Z,985.17
2017-07-31T02:17:17.816Z,985.17
2017-07-31T02:18:15.108Z,985.12
2017-07-31T02:19:12.521Z,985.02
2017-07-31T02:20:09.849Z,985.11
2017-07-31T02:21:07.216Z,985.11
2017-07-31T02:22:04.541Z,985.15
2017-07-31T02:23:02.029Z,985.18
2017-07-31T02:23:59.341Z,985.13
2017-07-31T02:24:56.689Z,985.16
2017-07-31T02:25:53.997Z,985.16
2017-07-31T02:26:51.312Z,985.12
2017-07-31T02:27:48.592Z,985.17
2017-07-31T02:28:45.897Z,985.19
2017-07-31T02:29:43.131Z,985.21
2017-07-31T02:30:40.476Z,985.22
2017-07-31T02:31:37.737Z,985.15
2017-07-31T02:32:35.011Z,985.20
2017-07-31T02:33:32.385Z,985.22
2017-07-31T02:34:29.829Z,985.26
2017-07-31T02:35:27.100Z,985.23
2017-07-31T02:36:24.426Z,985.20
2017-07-31T02:37:21.864Z,985.25
2017-07-31T02:38:19.222Z,985.21
2017-07-31T02:39:16.536Z,985.19
2017-07-31T02:40:13.976Z,985.23
2017-07-31T02:41:11.272Z,985.29
2017-07-31T02:42:08.606Z,985.26
2017-07-31T02:43:05.874Z,985.29
2017-07-31T02:44:03.186Z,985.33
2017-07-31T02:45:00.579Z,985.35
2017-07-31T02:45:57.953Z,985.32
2017-07-31T02:46:55.253Z,985.43
2017-07-31T02:47:52.536Z,985.32
2017-07-31T02:48:49.812Z,985.27
2017-07-31T02:49:47.121Z,985.29
2017-07-31T02:50:44.429Z,985.27
2017-07-31T02:51:41.775Z,985.34
2017-07-31T02:52:39.049Z,985.28
2017-07-31T02:53:36.418Z,985.29
2017-07-31T02:54:33.680Z,985.32
2017-07-31T02:55:30.978Z,985.38
2017-07-31T02:56:28.284Z,985.28
2017-07-31T02:57:25.676Z,985.30
2017-07-31T02:58:22.951Z,985.30
2017-07-31T02:59:20.294Z,985.32
2017-07-31T03:00:17.538Z,985.30
2017-07-31T03:01:14.814Z,985.36
2017-07-31T03:02:12.112Z,985.42
2017-07-31T03:03:09.445Z,985.39
2017-07-31T03:04:06.706Z,985.30
2017-07-31T03:05:03.989Z,985.31
2017-07-31T03:06:01.337Z,985.27
2017-07-31T03:06:58.661Z,985.17
2017-07-31T03:07:55.924Z,985.17
2017-07-31T03:08:53.232Z,985.18
2017-07-31T03:09:50.561Z,985.17
2017-07-31T03:10:47.903Z,985.19
2017-07-31T03:11:45.175Z,985.24
2017-07-31T03:12:42.472Z,985.25
2017-07-31T03:13:39.797Z,985.30
2017-07-31T03:14:37.096Z,985.34
2017-07-31T03:15:34.417Z,985.31
2017-07-31T03:16:31.749Z,985.36
2017-07-31T03:17:29.020Z,985.41
2017-07-31T03:18:26.342Z,985.33
2017-07-31T03:19:23.663Z,985.40
2017-07-31T03:20:20.989Z,985.33
2017-07-31T03:21:18.287Z,985.35
2017-07-31T03:22:15.617Z,985.41
2017-07-31T03:23:12.944Z,985.37
2017-07-31T03:24:10.317Z,985.35
2017-07-31T03:25:07.634Z,985.38
2017-07-31T03:26:04.971Z,985.31
2017-07-31T03:27:02.273Z,985.37
2017-07-31T03:27:59.564Z,985.35
2017-07-31T03:28:56.887Z,985.33
2017-07-31T03:29:54.236Z,985.29
2017-07-31T03:30:51.552Z,985.34
2017-07-31T03:31:48.877Z,985.35
2017-07-31T03:32:46.205Z,985.30
2017-07-31T03:33:43.568Z,985.35
2017-07-31T03:34:40.861Z,985.40
2017-07-31T03:35:38.191Z,985.37
2017-07-31T03:36:35.517Z,985.39
2017-07-31T03:37:32.895Z,985.33
2017-07-31T03:38:30.171Z,985.37
2017-07-31T03:39:27.531Z,985.41
2017-07-31T03:40:24.869Z,985.37
2017-07-31T03:41:22.216Z,985.40
2017-07-31T03:42:19.501Z,985.43
2017-07-31T03:43:16.894Z,985.39
2017-07-31T03:44:14.150Z,985.43
2017-07-31T03:45:11.489Z,985.37
2017-07-31T03:46:08.811Z,985.35
2017-07-31T03:48:15.172Z,985.31
2017-07-31T03:49:12.451Z,985.25
2017-07-31T03:50:09.843Z,985.20
2017-07-31T03:51:07.229Z,985.26
2017-07-31T03:52:04.535Z,985.22
2017-07-31T03:53:01.881Z,985.23
2017-07-31T03:53:59.200Z,985.21
2017-07-31T03:54:56.493Z,985.14
2017-07-31T03:55:53.809Z,985.14
2017-07-31T03:56:51.112Z,985.23
2017-07-31T03:57:48.420Z,985.24
2017-07-31T03:58:45.761Z,985.25
2017-07-31T03:59:43.036Z,985.34
2017-07-31T04:00:40.357Z,985.25
2017-07-31T04:01:37.630Z,985.32
2017-07-31T04:02:34.930Z,985.40
2017-07-31T04:03:32.189Z,985.35
2017-07-31T04:04:29.521Z,985.31
2017-07-31T04:05:26.796Z,985.36
2017-07-31T04:06:24.144Z,985.39
2017-07-31T04:07:21.428Z,985.36
2017-07-31T04:08:18.730Z,985.34
2017-07-31T04:09:16.376Z,985.32
2017-07-31T04:10:14.288Z,985.39
2017-07-31T04:11:11.655Z,985.38
2017-07-31T04:12:08.990Z,985.40
2017-07-31T04:13:06.478Z,985.41
2017-07-31T04:14:04.968Z,985.43
2017-07-31T04:15:02.262Z,985.44
2017-07-31T04:15:59.604Z,985.47
2017-07-31T04:16:56.841Z,985.48
2017-07-31T04:17:54.198Z,985.58
2017-07-31T04:18:51.491Z,985.60
2017-07-31T04:19:48.792Z,985.62
2017-07-31T04:20:46.110Z,985.62
2017-07-31T04:21:43.460Z,985.61
2017-07-31T04:22:40.735Z,985.66
2017-07-31T04:23:38.068Z,985.58
2017-07-31T04:24:35.347Z,985.64
2017-07-31T04:25:32.633Z,985.58
2017-07-31T04:26:29.978Z,985.60
2017-07-31T04:27:27.318Z,985.69
2017-07-31T04:28:24.693Z,985.68
2017-07-31T04:29:21.972Z,985.72
2017-07-31T04:30:19.237Z,985.69
2017-07-31T04:31:16.634Z,985.75
2017-07-31T04:32:13.996Z,985.85
2017-07-31T04:33:11.334Z,985.75
2017-07-31T04:34:08.659Z,985.84
2017-07-31T04:35:05.941Z,985.82
2017-07-31T04:36:03.238Z,985.74
2017-07-31T04:37:00.611Z,985.69
2017-07-31T04:37:57.869Z,985.75
2017-07-31T04:38:55.176Z,985.81
2017-07-31T04:39:52.439Z,985.81
2017-07-31T04:40:49.923Z,985.84
2017-07-31T04:41:47.256Z,985.83
2017-07-31T04:42:44.598Z,985.86
2017-07-31T04:43:41.923Z,985.89
2017-07-31T04:44:39.261Z,985.87
2017-07-31T04:45:36.561Z,985.90
2017-07-31T04:46:33.853Z,986.01
2017-07-31T04:47:31.136Z,986.04
2017-07-31T04:48:28.456Z,986.02
2017-07-31T04:49:25.708Z,986.01
2017-07-31T04:50:23.018Z,986.11
2017-07-31T04:51:20.320Z,986.04
2017-07-31T04:52:17.656Z,986.00
2017-07-31T04:53:15.050Z,986.00
2017-07-31T04:54:12.352Z,985.99
2017-07-31T04:55:09.673Z,986.03
2017-07-31T04:56:06.962Z,985.96
2017-07-31T04:57:04.276Z,985.97
2017-07-31T04:58:01.588Z,986.08
2017-07-31T04:58:59.075Z,986.03
2017-07-31T04:59:56.395Z,985.99
2017-07-31T05:00:53.654Z,986.09
2017-07-31T05:01:50.994Z,986.08
2017-07-31T05:02:48.292Z,986.04
2017-07-31T05:03:45.612Z,986.05
2017-07-31T05:04:42.924Z,986.03
2017-07-31T05:05:40.249Z,986.01
2017-07-31T05:06:37.544Z,986.06
2017-07-31T05:07:34.888Z,986.06
2017-07-31T05:08:32.177Z,986.12
2017-07-31T05:09:29.661Z,985.99
2017-07-31T05:10:26.985Z,986.05
2017-07-31T05:11:24.435Z,986.03
2017-07-31T05:12:21.813Z,985.96
2017-07-31T05:13:19.150Z,985.96
2017-07-31T05:14:16.445Z,985.94
2017-07-31T05:15:13.763Z,985.97
2017-07-31T05:16:11.057Z,986.00
2017-07-31T05:17:08.399Z,985.98
2017-07-31T05:18:06.307Z,986.00
2017-07-31T05:19:03.872Z,985.99
2017-07-31T05:20:01.156Z,986.03
2017-07-31T05:20:58.441Z,986.09
2017-07-31T05:21:55.759Z,986.13
2017-07-31T05:22:53.110Z,986.08
2017-07-31T05:23:50.579Z,986.10
2017-07-31T05:24:47.886Z,986.19
2017-07-31T05:25:45.197Z,986.16
2017-07-31T05:26:42.483Z,986.18
2017-07-31T05:27:39.780Z,986.14
2017-07-31T05:28:37.061Z,986.15
2017-07-31T05:29:34.472Z,986.18
2017-07-31T05:30:31.774Z,986.13
2017-07-31T05:31:29.085Z,986.22
2017-07-31T05:32:26.671Z,986.18
2017-07-31T05:33:24.043Z,986.23
2017-07-31T05:34:21.369Z,986.25
2017-07-31T05:35:18.676Z,986.24
2017-07-31T05:36:15.965Z,986.24
2017-07-31T05:37:13.301Z,986.24
2017-07-31T05:38:10.622Z,986.25
2017-07-31T05:39:07.965Z,986.17
2017-07-31T05:40:05.317Z,986.23
2017-07-31T05:41:02.672Z,986.17
2017-07-31T05:41:59.972Z,986.21
2017-07-31T05:42:57.289Z,986.22
2017-07-31T05:43:54.603Z,986.16
2017-07-31T05:44:51.898Z,986.29
2017-07-31T05:45:49.227Z,986.30
2017-07-31T05:46:46.685Z,986.28
2017-07-31T05:47:44.067Z,986.31
2017-07-31T05:48:41.416Z,986.35
2017-07-31T05:49:38.747Z,986.32
2017-07-31T05:50:36.063Z,986.44
2017-07-31T05:51:33.458Z,986.39
2017-07-31T05:52:30.739Z,986.27
2017-07-31T05:53:28.152Z,986.36
2017-07-31T05:54:25.405Z,986.37
2017-07-31T05:55:22.694Z,986.38
2017-07-31T05:56:20.004Z,986.37
2017-07-31T05:57:17.280Z,986.46
2017-07-31T05:58:14.516Z,986.50
2017-07-31T05:59:11.820Z,986.45
2017-07-31T06:00:09.067Z,986.42
2017-07-31T06:01:06.404Z,986.49
2017-07-31T06:02:03.674Z,986.42
2017-07-31T06:03:00.964Z,986.37
2017-07-31T06:03:58.208Z,986.39
2017-07-31T06:04:55.510Z,986.37
2017-07-31T06:05:52.797Z,986.37
2017-07-31T06:06:50.112Z,986.33
2017-07-31T06:07:47.517Z,986.31
2017-07-31T06:08:44.907Z,986.32
2017-07-31T06:09:42.168Z,986.33
2017-07-31T06:10:39.484Z,986.42
2017-07-31T06:11:37.043Z,986.40
2017-07-31T06:12:34.357Z,986.41
2017-07-31T06:13:31.690Z,986.41
2017-07-31T06:14:29.016Z,986.47
2017-07-31T06:15:26.321Z,986.48
2017-07-31T06:16:23.588Z,986.50
2017-07-31T06:17:20.872Z,986.48
2017-07-31T06:18:18.162Z,986.46
2017-07-31T06:19:15.462Z,986.47
2017-07-31T06:20:12.779Z,986.54
2017-07-31T06:21:10.058Z,986.56
2017-07-31T06:22:07.369Z,986.53
2017-07-31T06:23:04.645Z,986.44
2017-07-31T06:24:02.092Z,986.35
2017-07-31T06:24:59.403Z,986.35
2017-07-31T06:25:56.749Z,986.42
2017-07-31T06:26:54.120Z,986.42
2017-07-31T06:27:51.479Z,986.52
2017-07-31T06:28:48.737Z,986.47
2017-07-31T06:29:46.108Z,986.58
2017-07-31T06:30:43.365Z,986.46
2017-07-31T06:31:40.659Z,986.47
2017-07-31T06:32:37.946Z,986.48
2017-07-31T06:33:35.253Z,986.46
2017-07-31T06:34:32.540Z,986.38
2017-07-31T06:35:29.877Z,986.41
2017-07-31T06:36:27.190Z,986.31
2017-07-31T06:37:24.498Z,986.23
2017-07-31T06:38:21.806Z,986.31
2017-07-31T06:39:19.117Z,986.37
2017-07-31T06:40:16.432Z,986.27
2017-07-31T06:41:13.793Z,986.35
2017-07-31T06:42:11.068Z,986.42
2017-07-31T06:43:08.381Z,986.34
2017-07-31T06:44:05.720Z,986.34
2017-07-31T06:45:03.043Z,986.32
2017-07-31T06:46:00.293Z,986.40
2017-07-31T06:46:57.660Z,986.39
2017-07-31T06:47:54.868Z,986.43
2017-07-31T06:48:52.120Z,986.42
2017-07-31T06:49:49.388Z,986.33
2017-07-31T06:50:46.675Z,986.31
2017-07-31T06:51:43.935Z,986.22
2017-07-31T06:52:41.207Z,986.24
2017-07-31T06:53:38.433Z,986.31
2017-07-31T06:54:35.730Z,986.34
2017-07-31T06:55:33.034Z,986.40
2017-07-31T06:56:30.372Z,986.50
2017-07-31T06:57:27.620Z,986.52
2017-07-31T06:58:24.896Z,986.55
2017-07-31T06:59:22.165Z,986.50
2017-07-31T07:00:19.489Z,986.50
2017-07-31T07:01:16.773Z,986.52
2017-07-31T07:02:14.046Z,986.53
2017-07-31T07:03:11.293Z,986.52
2017-07-31T07:04:08.565Z,986.61
2017-07-31T07:05:05.807Z,986.56
2017-07-31T07:06:03.112Z,986.67
2017-07-31T07:07:00.414Z,986.63
2017-07-31T07:07:59.760Z,986.72
2017-07-31T07:08:56.999Z,986.71
2017-07-31T07:09:54.341Z,986.65
2017-07-31T07:10:51.632Z,986.75
2017-07-31T07:11:48.968Z,986.61
2017-07-31T07:12:46.228Z,986.72
2017-07-31T07:13:43.517Z,986.76
2017-07-31T07:14:40.793Z,986.69
2017-07-31T07:15:38.100Z,986.73
2017-07-31T07:16:35.347Z,986.80
2017-07-31T07:17:32.606Z,986.84
2017-07-31T07:18:29.865Z,986.76
2017-07-31T07:19:27.159Z,986.78
2017-07-31T07:20:24.414Z,986.81
2017-07-31T07:21:21.751Z,986.78
2017-07-31T07:22:19.026Z,986.90
2017-07-31T07:23:16.318Z,986.86
2017-07-31T07:24:13.595Z,986.88
2017-07-31T07:25:10.880Z,986.89
2017-07-31T07:26:08.154Z,986.93
2017-07-31T07:27:05.456Z,986.92
2017-07-31T07:28:02.706Z,986.92
2017-07-31T07:29:00.045Z,986.95
2017-07-31T07:29:57.360Z,987.00
2017-07-31T07:30:54.740Z,986.98
2017-07-31T07:31:52.034Z,986.91
2017-07-31T07:32:49.332Z,986.94
2017-07-31T07:33:46.601Z,986.93
2017-07-31T07:34:43.867Z,986.93
2017-07-31T07:35:41.122Z,986.94
2017-07-31T07:36:38.498Z,986.95
2017-07-31T07:37:35.748Z,986.97
2017-07-31T07:38:33.013Z,986.97
2017-07-31T07:39:30.316Z,986.94
2017-07-31T07:40:27.586Z,986.82
2017-07-31T07:41:24.862Z,986.89
2017-07-31T07:42:22.165Z,986.83
2017-07-31T07:43:19.411Z,986.77
2017-07-31T07:44:16.707Z,986.71
2017-07-31T07:45:14.047Z,986.75
2017-07-31T07:46:11.332Z,986.71
2017-07-31T07:47:13.821Z,986.73
2017-07-31T07:48:11.084Z,986.77
2017-07-31T07:49:08.325Z,986.71
2017-07-31T07:50:05.647Z,986.75
2017-07-31T07:51:02.910Z,986.76
2017-07-31T07:52:00.203Z,986.80
2017-07-31T07:52:57.465Z,986.80
2017-07-31T07:53:54.753Z,986.83
2017-07-31T07:54:52.009Z,986.73
2017-07-31T07:55:49.273Z,986.89
2017-07-31T07:56:46.566Z,986.88
2017-07-31T07:57:43.844Z,986.87
2017-07-31T07:58:41.093Z,986.78
2017-07-31T07:59:38.369Z,986.85
2017-07-31T08:00:35.645Z,986.82
2017-07-31T08:01:32.942Z,986.82
2017-07-31T08:02:30.196Z,986.76
2017-07-31T08:03:27.491Z,986.80
2017-07-31T08:04:24.742Z,986.84
2017-07-31T08:05:22.045Z,986.95
2017-07-31T08:06:19.289Z,986.91
2017-07-31T08:07:16.660Z,986.88
2017-07-31T08:08:13.896Z,986.90
2017-07-31T08:09:11.180Z,986.92
2017-07-31T08:10:08.398Z,986.95
2017-07-31T08:11:05.679Z,986.90
2017-07-31T08:12:02.948Z,986.86
2017-07-31T08:13:00.224Z,986.82
2017-07-31T08:13:57.486Z,986.79
2017-07-31T08:14:54.757Z,986.79
2017-07-31T08:15:52.025Z,986.83
2017-07-31T08:16:49.320Z,986.74
2017-07-31T08:17:46.647Z,986.73
2017-07-31T08:18:43.932Z,986.73
2017-07-31T08:19:41.190Z,986.68
2017-07-31T08:20:38.459Z,986.64
2017-07-31T08:21:35.779Z,986.65
2017-07-31T08:22:33.213Z,986.61
2017-07-31T08:23:30.488Z,986.72
2017-07-31T08:24:27.902Z,986.78
2017-07-31T08:25:25.210Z,986.77
2017-07-31T08:26:22.511Z,986.89
2017-07-31T08:27:19.857Z,986.81
2017-07-31T08:28:17.181Z,986.94
2017-07-31T08:29:14.520Z,986.88
2017-07-31T08:30:11.846Z,986.82
2017-07-31T08:31:09.122Z,986.90
2017-07-31T08:32:06.408Z,986.87
2017-07-31T08:33:03.695Z,986.93
2017-07-31T08:34:01.000Z,986.88
2017-07-31T08:34:58.267Z,986.90
2017-07-31T08:35:55.643Z,986.93
2017-07-31T08:36:52.913Z,986.89
2017-07-31T08:37:50.305Z,986.84
2017-07-31T08:38:47.576Z,986.83
2017-07-31T08:39:44.849Z,986.94
2017-07-31T08:40:42.101Z,986.90
2017-07-31T08:41:39.393Z,986.91
2017-07-31T08:42:36.711Z,986.96
2017-07-31T08:43:33.991Z,987.01
2017-07-31T08:44:31.293Z,986.95
2017-07-31T08:45:28.617Z,987.02
2017-07-31T08:46:25.877Z,987.06
2017-07-31T08:47:23.172Z,987.18
2017-07-31T08:48:20.455Z,987.18
2017-07-31T08:49:17.736Z,987.19
2017-07-31T08:50:14.995Z,987.24
2017-07-31T08:51:12.272Z,987.22
2017-07-31T08:52:09.533Z,987.23
2017-07-31T08:53:06.841Z,987.27
2017-07-31T08:54:04.140Z,987.20
2017-07-31T08:55:01.426Z,987.26
2017-07-31T08:55:58.731Z,987.24
2017-07-31T08:56:56.029Z,987.23
2017-07-31T08:57:53.329Z,987.19
2017-07-31T08:58:50.636Z,987.19
2017-07-31T08:59:47.884Z,987.19
2017-07-31T09:00:45.196Z,987.15
2017-07-31T09:01:42.459Z,987.14
2017-07-31T09:02:39.744Z,987.05
2017-07-31T09:03:37.013Z,987.11
2017-07-31T09:04:34.284Z,987.10
2017-07-31T09:05:31.545Z,987.13
2017-07-31T09:06:28.824Z,987.05
2017-07-31T09:07:26.084Z,987.03
2017-07-31T09:08:23.409Z,986.95
2017-07-31T09:09:20.682Z,987.00
2017-07-31T09:10:17.973Z,987.02
2017-07-31T09:11:15.233Z,987.14
2017-07-31T09:12:12.521Z,987.04
2017-07-31T09:13:09.744Z,987.02
2017-07-31T09:14:07.046Z,987.08
2017-07-31T09:15:04.362Z,987.03
2017-07-31T09:16:01.651Z,987.03
2017-07-31T09:16:58.951Z,987.11
2017-07-31T09:17:56.257Z,987.08
2017-07-31T09:18:53.533Z,987.09
2017-07-31T09:19:50.840Z,987.09
2017-07-31T09:20:48.129Z,987.11
2017-07-31T09:21:45.570Z,987.14
2017-07-31T09:22:42.825Z,987.15
2017-07-31T09:23:40.125Z,987.13
2017-07-31T09:24:37.410Z,987.10
2017-07-31T09:25:34.669Z,987.14
2017-07-31T09:26:31.911Z,987.10
2017-07-31T09:27:29.197Z,987.12
2017-07-31T09:28:26.464Z,987.17
2017-07-31T09:29:23.745Z,987.18
2017-07-31T09:30:21.008Z,987.08
2017-07-31T09:31:18.304Z,987.18
2017-07-31T09:32:15.601Z,987.17
2017-07-31T09:33:12.905Z,987.21
2017-07-31T09:34:10.196Z,987.17
2017-07-31T09:35:07.472Z,987.13
2017-07-31T09:36:04.749Z,987.08
2017-07-31T09:37:02.080Z,987.08
2017-07-31T09:37:59.356Z,987.11
2017-07-31T09:38:56.677Z,987.19
2017-07-31T09:39:53.956Z,987.13
2017-07-31T09:40:51.263Z,987.15
2017-07-31T09:41:48.605Z,987.03
2017-07-31T09:42:45.852Z,987.09
2017-07-31T09:43:43.105Z,987.08
2017-07-31T09:44:40.503Z,987.20
2017-07-31T09:45:37.769Z,987.07
2017-07-31T09:46:35.173Z,987.02
2017-07-31T09:47:32.483Z,986.97
2017-07-31T09:48:29.809Z,987.04
2017-07-31T09:49:27.084Z,987.04
2017-07-31T09:50:24.369Z,986.99
2017-07-31T09:51:21.615Z,987.00
2017-07-31T09:52:18.909Z,987.02
2017-07-31T09:53:16.179Z,987.00
2017-07-31T09:54:13.439Z,987.05
2017-07-31T09:55:10.737Z,987.02
2017-07-31T09:56:08.011Z,986.97
2017-07-31T09:57:05.257Z,986.99
2017-07-31T09:58:02.532Z,987.00
2017-07-31T09:58:59.772Z,987.04
2017-07-31T09:59:57.077Z,987.00
2017-07-31T10:00:54.339Z,986.99
2017-07-31T10:01:51.634Z,987.07
2017-07-31T10:02:48.875Z,987.18
2017-07-31T10:03:46.133Z,987.09
2017-07-31T10:04:43.437Z,987.07
2017-07-31T10:05:40.723Z,986.99
2017-07-31T10:06:37.985Z,987.02
2017-07-31T10:07:35.264Z,987.10
2017-07-31T10:08:32.506Z,987.07
2017-07-31T10:09:29.809Z,987.10
2017-07-31T10:10:27.069Z,987.07
2017-07-31T10:11:24.825Z,987.06
2017-07-31T10:12:22.066Z,986.99
2017-07-31T10:13:19.377Z,987.02
2017-07-31T10:14:16.640Z,986.99
2017-07-31T10:15:13.937Z,987.00
2017-07-31T10:16:11.186Z,987.02
2017-07-31T10:17:08.464Z,987.08
2017-07-31T10:18:05.752Z,987.05
2017-07-31T10:19:03.040Z,986.99
2017-07-31T10:20:00.289Z,987.02
2017-07-31T10:20:57.596Z,987.01
2017-07-31T10:21:54.831Z,986.85
2017-07-31T10:22:52.119Z,986.90
2017-07-31T10:23:49.394Z,986.93
2017-07-31T10:24:46.701Z,986.97
2017-07-31T10:25:43.981Z,986.92
2017-07-31T10:26:41.264Z,987.03
2017-07-31T10:27:38.528Z,987.04
2017-07-31T10:28:35.884Z,987.00
2017-07-31T10:29:33.136Z,986.98
2017-07-31T10:30:30.513Z,987.00
2017-07-31T10:31:27.772Z,987.00
2017-07-31T10:32:25.069Z,987.07
2017-07-31T10:33:22.350Z,986.99
2017-07-31T10:34:19.623Z,986.93
2017-07-31T10:35:16.912Z,986.88
2017-07-31T10:36:14.292Z,986.94
2017-07-31T10:37:11.558Z,987.07
2017-07-31T10:38:08.820Z,987.07
2017-07-31T10:39:06.076Z,986.95
2017-07-31T10:40:03.355Z,987.00
2017-07-31T10:41:00.616Z,986.96
2017-07-31T10:41:57.889Z,986.94
2017-07-31T10:42:55.172Z,986.99
2017-07-31T10:43:52.443Z,987.02
2017-07-31T10:44:49.689Z,987.04
2017-07-31T10:45:47.041Z,987.11
2017-07-31T10:46:44.336Z,987.06
2017-07-31T10:47:41.606Z,987.07
2017-07-31T10:48:38.900Z,987.05
2017-07-31T10:49:36.156Z,987.01
2017-07-31T10:50:33.380Z,987.05
2017-07-31T10:51:30.658Z,987.07
2017-07-31T10:52:27.905Z,987.06
2017-07-31T10:53:25.174Z,987.06
2017-07-31T10:54:22.436Z,987.03
2017-07-31T10:55:20.374Z,987.00
2017-07-31T10:56:17.643Z,987.00
2017-07-31T10:57:14.982Z,986.93
2017-07-31T10:58:12.204Z,986.99
2017-07-31T10:59:09.452Z,987.03
2017-07-31T11:00:06.737Z,987.08
2017-07-31T11:01:04.027Z,987.05
2017-07-31T11:02:01.328Z,987.06
2017-07-31T11:02:58.596Z,987.04
2017-07-31T11:03:55.849Z,987.02
2017-07-31T11:04:53.130Z,987.03
2017-07-31T11:05:50.385Z,987.03
2017-07-31T11:06:47.699Z,987.00
2017-07-31T11:07:44.933Z,986.99
2017-07-31T11:08:42.216Z,986.98
2017-07-31T11:09:39.462Z,986.99
2017-07-31T11:10:36.737Z,986.99
2017-07-31T11:11:34.020Z,987.01
2017-07-31T11:12:31.384Z,986.93
2017-07-31T11:13:28.626Z,986.98
2017-07-31T11:14:25.904Z,986.96
2017-07-31T11:15:23.160Z,986.95
2017-07-31T11:16:20.451Z,986.91
2017-07-31T11:17:17.704Z,986.87
2017-07-31T11:18:15.072Z,986.81
2017-07-31T11:19:12.324Z,986.82
2017-07-31T11:20:09.585Z,986.86
2017-07-31T11:21:06.831Z,986.83
2017-07-31T11:22:04.134Z,986.89
2017-07-31T11:23:01.385Z,986.83
2017-07-31T11:23:58.646Z,986.83
2017-07-31T11:24:55.893Z,986.85
2017-07-31T11:25:53.161Z,986.90
2017-07-31T11:26:50.445Z,987.01
2017-07-31T11:27:47.723Z,986.91
2017-07-31T11:28:44.970Z,986.93
2017-07-31T11:29:42.249Z,986.98
2017-07-31T11:30:39.492Z,987.06
2017-07-31T11:31:36.768Z,987.04
2017-07-31T11:32:34.032Z,987.03
2017-07-31T11:33:31.296Z,987.00
2017-07-31T11:34:28.528Z,986.94
2017-07-31T11:35:25.800Z,986.88
2017-07-31T11:36:23.036Z,986.91
2017-07-31T11:37:20.316Z,987.00
2017-07-31T11:38:17.565Z,986.95
2017-07-31T11:39:14.844Z,986.84
2017-07-31T11:40:12.149Z,986.90
2017-07-31T11:41:09.416Z,986.93
2017-07-31T11:42:06.661Z,986.87
2017-07-31T11:43:03.944Z,986.93
2017-07-31T11:44:01.189Z,986.85
2017-07-31T11:44:58.493Z,986.81
2017-07-31T11:45:55.792Z,986.80
2017-07-31T11:46:53.082Z,986.90
2017-07-31T11:47:50.354Z,986.82
2017-07-31T11:48:47.617Z,986.88
2017-07-31T11:49:44.873Z,986.86
2017-07-31T11:50:42.156Z,986.89
2017-07-31T11:51:39.405Z,986.84
2017-07-31T11:52:36.701Z,986.85
2017-07-31T11:53:33.988Z,986.87
2017-07-31T11:54:31.260Z,986.82
2017-07-31T11:55:28.512Z,986.91
2017-07-31T11:56:25.793Z,986.90